sensor_id;sensor_type;location;lat;lon;timestamp;P1;durP1;ratioP1;P2;durP2;ratioP2
34234;SDS011;20500;49.856;20.290;2022-08-19T00:00:06;17.90;;;11.60;;
34234;SDS011;20500;49.856;20.290;2022-08-19T00:03:17;17.10;;;12.20;;
34234;SDS011;20500;49.856;20.290;2022-08-19T00:06:23;17.80;;;11.40;;
34234;SDS011;20500;49.856;20.290;2022-08-19T00:09:29;14.40;;;10.20;;
34234;SDS011;20500;49.856;20.290;2022-08-19T00:12:35;16.40;;;10.20;;
34234;SDS011;20500;49.856;20.290;2022-08-19T00:15:48;17.90;;;11.90;;
34234;SDS011;20500;49.856;20.290;2022-08-19T00:18:55;17.10;;;11.30;;
34234;SDS011;20500;49.856;20.290;2022-08-19T00:22:01;14.90;;;10.70;;
34234;SDS011;20500;49.856;20.290;2022-08-19T00:25:09;15.10;;;10.90;;
34234;SDS011;20500;49.856;20.290;2022-08-19T00:28:17;16.10;;;11.60;;
34234;SDS011;20500;49.856;20.290;2022-08-19T00:31:24;17.40;;;12.40;;
34234;SDS011;20500;49.856;20.290;2022-08-19T00:34:30;16.60;;;11.80;;
34234;SDS011;20500;49.856;20.290;2022-08-19T00:37:37;17.60;;;12.10;;
34234;SDS011;20500;49.856;20.290;2022-08-19T00:40:46;17.60;;;12.80;;
34234;SDS011;20500;49.856;20.290;2022-08-19T00:44:01;19.00;;;13.90;;
34234;SDS011;20500;49.856;20.290;2022-08-19T00:47:09;14.40;;;9.80;;
34234;SDS011;20500;49.856;20.290;2022-08-19T00:50:18;17.20;;;11.50;;
34234;SDS011;20500;49.856;20.290;2022-08-19T00:53:26;17.20;;;11.90;;
34234;SDS011;20500;49.856;20.290;2022-08-19T00:56:34;17.30;;;11.70;;
34234;SDS011;20500;49.856;20.290;2022-08-19T00:59:44;18.40;;;12.00;;
34234;SDS011;20500;49.856;20.290;2022-08-19T01:03:05;15.80;;;11.10;;
34234;SDS011;20500;49.856;20.290;2022-08-19T01:06:12;16.70;;;11.50;;
34234;SDS011;20500;49.856;20.290;2022-08-19T01:09:22;15.90;;;10.50;;
34234;SDS011;20500;49.856;20.290;2022-08-19T01:12:29;20.40;;;12.00;;
34234;SDS011;20500;49.856;20.290;2022-08-19T01:15:38;16.00;;;11.80;;
34234;SDS011;20500;49.856;20.290;2022-08-19T01:18:48;16.60;;;11.60;;
34234;SDS011;20500;49.856;20.290;2022-08-19T01:21:55;15.60;;;10.60;;
34234;SDS011;20500;49.856;20.290;2022-08-19T01:25:18;18.80;;;14.10;;
34234;SDS011;20500;49.856;20.290;2022-08-19T01:28:28;17.00;;;11.00;;
34234;SDS011;20500;49.856;20.290;2022-08-19T01:31:41;15.70;;;10.80;;
34234;SDS011;20500;49.856;20.290;2022-08-19T01:34:48;16.50;;;10.30;;
34234;SDS011;20500;49.856;20.290;2022-08-19T01:37:59;16.40;;;10.40;;
34234;SDS011;20500;49.856;20.290;2022-08-19T01:41:11;15.20;;;10.50;;
34234;SDS011;20500;49.856;20.290;2022-08-19T01:44:18;16.40;;;10.50;;
34234;SDS011;20500;49.856;20.290;2022-08-19T01:47:27;15.00;;;11.00;;
34234;SDS011;20500;49.856;20.290;2022-08-19T01:50:33;15.90;;;10.80;;
34234;SDS011;20500;49.856;20.290;2022-08-19T01:53:41;14.70;;;10.50;;
34234;SDS011;20500;49.856;20.290;2022-08-19T01:56:51;14.90;;;9.70;;
34234;SDS011;20500;49.856;20.290;2022-08-19T01:59:59;13.80;;;9.90;;
34234;SDS011;20500;49.856;20.290;2022-08-19T02:03:10;14.80;;;9.30;;
34234;SDS011;20500;49.856;20.290;2022-08-19T02:06:16;14.50;;;10.90;;
34234;SDS011;20500;49.856;20.290;2022-08-19T02:09:28;16.70;;;11.00;;
34234;SDS011;20500;49.856;20.290;2022-08-19T02:12:36;15.60;;;10.70;;
34234;SDS011;20500;49.856;20.290;2022-08-19T02:15:42;15.00;;;9.50;;
34234;SDS011;20500;49.856;20.290;2022-08-19T02:18:49;13.70;;;9.20;;
34234;SDS011;20500;49.856;20.290;2022-08-19T02:21:55;15.40;;;10.40;;
34234;SDS011;20500;49.856;20.290;2022-08-19T02:25:01;16.30;;;10.80;;
34234;SDS011;20500;49.856;20.290;2022-08-19T02:28:08;13.70;;;9.50;;
34234;SDS011;20500;49.856;20.290;2022-08-19T02:31:22;15.60;;;9.70;;
34234;SDS011;20500;49.856;20.290;2022-08-19T02:34:30;16.40;;;10.40;;
34234;SDS011;20500;49.856;20.290;2022-08-19T02:37:36;14.40;;;9.70;;
34234;SDS011;20500;49.856;20.290;2022-08-19T02:41:01;13.50;;;9.80;;
34234;SDS011;20500;49.856;20.290;2022-08-19T02:44:08;13.30;;;9.00;;
34234;SDS011;20500;49.856;20.290;2022-08-19T02:47:33;13.60;;;8.80;;
34234;SDS011;20500;49.856;20.290;2022-08-19T02:50:40;14.40;;;9.10;;
34234;SDS011;20500;49.856;20.290;2022-08-19T02:53:55;13.00;;;8.90;;
34234;SDS011;20500;49.856;20.290;2022-08-19T02:57:02;14.90;;;8.70;;
34234;SDS011;20500;49.856;20.290;2022-08-19T03:00:11;14.30;;;9.10;;
34234;SDS011;20500;49.856;20.290;2022-08-19T03:03:19;14.50;;;8.80;;
34234;SDS011;20500;49.856;20.290;2022-08-19T03:06:26;13.30;;;8.90;;
34234;SDS011;20500;49.856;20.290;2022-08-19T03:09:35;13.80;;;9.10;;
34234;SDS011;20500;49.856;20.290;2022-08-19T03:12:42;15.40;;;9.40;;
34234;SDS011;20500;49.856;20.290;2022-08-19T03:15:49;16.70;;;8.90;;
34234;SDS011;20500;49.856;20.290;2022-08-19T03:18:55;17.20;;;9.60;;
34234;SDS011;20500;49.856;20.290;2022-08-19T03:22:03;13.90;;;9.20;;
34234;SDS011;20500;49.856;20.290;2022-08-19T03:25:11;16.00;;;9.20;;
34234;SDS011;20500;49.856;20.290;2022-08-19T03:28:19;12.20;;;8.20;;
34234;SDS011;20500;49.856;20.290;2022-08-19T03:31:26;13.60;;;8.20;;
34234;SDS011;20500;49.856;20.290;2022-08-19T03:34:54;13.90;;;8.10;;
34234;SDS011;20500;49.856;20.290;2022-08-19T03:38:00;12.90;;;8.50;;
34234;SDS011;20500;49.856;20.290;2022-08-19T03:41:07;14.40;;;8.00;;
34234;SDS011;20500;49.856;20.290;2022-08-19T03:44:16;14.40;;;8.40;;
34234;SDS011;20500;49.856;20.290;2022-08-19T03:47:25;14.30;;;9.00;;
34234;SDS011;20500;49.856;20.290;2022-08-19T03:50:31;14.50;;;9.50;;
34234;SDS011;20500;49.856;20.290;2022-08-19T03:53:37;15.20;;;9.70;;
34234;SDS011;20500;49.856;20.290;2022-08-19T03:56:43;16.60;;;10.20;;
34234;SDS011;20500;49.856;20.290;2022-08-19T03:59:51;16.40;;;9.90;;
34234;SDS011;20500;49.856;20.290;2022-08-19T04:03:06;18.00;;;10.40;;
34234;SDS011;20500;49.856;20.290;2022-08-19T04:06:12;19.50;;;10.60;;
34234;SDS011;20500;49.856;20.290;2022-08-19T04:09:20;16.50;;;9.80;;
34234;SDS011;20500;49.856;20.290;2022-08-19T04:12:26;15.00;;;9.60;;
34234;SDS011;20500;49.856;20.290;2022-08-19T04:15:32;14.20;;;9.80;;
34234;SDS011;20500;49.856;20.290;2022-08-19T04:18:44;15.50;;;10.60;;
34234;SDS011;20500;49.856;20.290;2022-08-19T04:21:51;14.50;;;10.30;;
34234;SDS011;20500;49.856;20.290;2022-08-19T04:24:59;15.20;;;10.40;;
34234;SDS011;20500;49.856;20.290;2022-08-19T04:28:05;16.30;;;10.60;;
34234;SDS011;20500;49.856;20.290;2022-08-19T04:31:14;15.10;;;10.50;;
34234;SDS011;20500;49.856;20.290;2022-08-19T04:34:22;13.30;;;9.80;;
34234;SDS011;20500;49.856;20.290;2022-08-19T04:37:30;15.90;;;10.60;;
34234;SDS011;20500;49.856;20.290;2022-08-19T04:40:41;15.70;;;10.00;;
34234;SDS011;20500;49.856;20.290;2022-08-19T04:44:05;16.00;;;11.30;;
34234;SDS011;20500;49.856;20.290;2022-08-19T04:47:11;17.40;;;11.10;;
34234;SDS011;20500;49.856;20.290;2022-08-19T04:50:26;14.70;;;10.50;;
34234;SDS011;20500;49.856;20.290;2022-08-19T04:53:33;17.30;;;11.00;;
34234;SDS011;20500;49.856;20.290;2022-08-19T04:56:40;14.60;;;10.70;;
34234;SDS011;20500;49.856;20.290;2022-08-19T04:59:46;15.00;;;10.70;;
34234;SDS011;20500;49.856;20.290;2022-08-19T05:02:53;15.60;;;10.70;;
34234;SDS011;20500;49.856;20.290;2022-08-19T05:05:59;18.80;;;11.60;;
34234;SDS011;20500;49.856;20.290;2022-08-19T05:09:11;17.40;;;11.70;;
34234;SDS011;20500;49.856;20.290;2022-08-19T05:12:18;17.40;;;10.90;;
34234;SDS011;20500;49.856;20.290;2022-08-19T05:15:30;17.80;;;12.30;;
34234;SDS011;20500;49.856;20.290;2022-08-19T05:18:37;17.20;;;12.20;;
34234;SDS011;20500;49.856;20.290;2022-08-19T05:21:58;19.00;;;14.00;;
34234;SDS011;20500;49.856;20.290;2022-08-19T05:25:21;16.10;;;11.40;;
34234;SDS011;20500;49.856;20.290;2022-08-19T05:28:28;15.50;;;10.90;;
34234;SDS011;20500;49.856;20.290;2022-08-19T05:31:35;18.00;;;12.20;;
34234;SDS011;20500;49.856;20.290;2022-08-19T05:34:43;16.30;;;11.90;;
34234;SDS011;20500;49.856;20.290;2022-08-19T05:37:49;17.20;;;11.70;;
34234;SDS011;20500;49.856;20.290;2022-08-19T05:41:01;15.60;;;10.80;;
34234;SDS011;20500;49.856;20.290;2022-08-19T05:44:10;16.50;;;12.10;;
34234;SDS011;20500;49.856;20.290;2022-08-19T05:47:18;17.20;;;11.90;;
34234;SDS011;20500;49.856;20.290;2022-08-19T05:50:25;16.50;;;12.00;;
34234;SDS011;20500;49.856;20.290;2022-08-19T05:53:31;18.50;;;11.80;;
34234;SDS011;20500;49.856;20.290;2022-08-19T05:56:39;15.10;;;11.80;;
34234;SDS011;20500;49.856;20.290;2022-08-19T05:59:46;15.10;;;11.40;;
34234;SDS011;20500;49.856;20.290;2022-08-19T06:03:00;19.30;;;12.00;;
34234;SDS011;20500;49.856;20.290;2022-08-19T06:06:15;14.90;;;11.00;;
34234;SDS011;20500;49.856;20.290;2022-08-19T06:09:21;16.30;;;11.80;;
34234;SDS011;20500;49.856;20.290;2022-08-19T06:12:28;16.90;;;12.00;;
34234;SDS011;20500;49.856;20.290;2022-08-19T06:15:37;16.40;;;11.50;;
34234;SDS011;20500;49.856;20.290;2022-08-19T06:18:47;15.30;;;11.00;;
34234;SDS011;20500;49.856;20.290;2022-08-19T06:21:55;16.80;;;11.60;;
34234;SDS011;20500;49.856;20.290;2022-08-19T06:25:04;15.20;;;11.00;;
34234;SDS011;20500;49.856;20.290;2022-08-19T06:28:12;14.70;;;10.00;;
34234;SDS011;20500;49.856;20.290;2022-08-19T06:31:21;15.40;;;10.10;;
34234;SDS011;20500;49.856;20.290;2022-08-19T06:34:29;13.70;;;10.00;;
34234;SDS011;20500;49.856;20.290;2022-08-19T06:37:37;15.40;;;9.90;;
34234;SDS011;20500;49.856;20.290;2022-08-19T06:40:45;14.70;;;10.20;;
34234;SDS011;20500;49.856;20.290;2022-08-19T06:43:52;15.60;;;10.10;;
34234;SDS011;20500;49.856;20.290;2022-08-19T06:47:00;14.20;;;10.00;;
34234;SDS011;20500;49.856;20.290;2022-08-19T06:50:16;14.80;;;9.70;;
34234;SDS011;20500;49.856;20.290;2022-08-19T06:53:22;13.50;;;9.50;;
34234;SDS011;20500;49.856;20.290;2022-08-19T06:56:31;14.30;;;9.40;;
34234;SDS011;20500;49.856;20.290;2022-08-19T06:59:38;16.80;;;10.00;;
34234;SDS011;20500;49.856;20.290;2022-08-19T07:02:44;14.10;;;9.20;;
34234;SDS011;20500;49.856;20.290;2022-08-19T07:05:59;15.70;;;9.60;;
34234;SDS011;20500;49.856;20.290;2022-08-19T07:09:23;13.90;;;9.70;;
34234;SDS011;20500;49.856;20.290;2022-08-19T07:12:32;14.10;;;9.40;;
34234;SDS011;20500;49.856;20.290;2022-08-19T07:15:40;14.00;;;9.10;;
34234;SDS011;20500;49.856;20.290;2022-08-19T07:18:46;15.50;;;9.10;;
34234;SDS011;20500;49.856;20.290;2022-08-19T07:21:53;15.90;;;9.70;;
34234;SDS011;20500;49.856;20.290;2022-08-19T07:25:00;14.40;;;8.80;;
34234;SDS011;20500;49.856;20.290;2022-08-19T07:28:07;14.50;;;9.00;;
34234;SDS011;20500;49.856;20.290;2022-08-19T07:31:27;16.10;;;10.00;;
34234;SDS011;20500;49.856;20.290;2022-08-19T07:34:33;12.80;;;9.00;;
34234;SDS011;20500;49.856;20.290;2022-08-19T07:37:41;13.70;;;9.00;;
34234;SDS011;20500;49.856;20.290;2022-08-19T07:40:48;13.70;;;8.50;;
34234;SDS011;20500;49.856;20.290;2022-08-19T07:43:54;13.70;;;8.90;;
34234;SDS011;20500;49.856;20.290;2022-08-19T07:47:01;12.30;;;8.80;;
34234;SDS011;20500;49.856;20.290;2022-08-19T07:50:08;12.70;;;9.10;;
34234;SDS011;20500;49.856;20.290;2022-08-19T07:53:15;13.60;;;9.20;;
34234;SDS011;20500;49.856;20.290;2022-08-19T07:56:21;17.50;;;9.40;;
34234;SDS011;20500;49.856;20.290;2022-08-19T07:59:28;14.70;;;9.40;;
34234;SDS011;20500;49.856;20.290;2022-08-19T08:02:35;15.60;;;9.10;;
34234;SDS011;20500;49.856;20.290;2022-08-19T08:05:42;14.60;;;8.90;;
34234;SDS011;20500;49.856;20.290;2022-08-19T08:09:06;14.00;;;9.30;;
34234;SDS011;20500;49.856;20.290;2022-08-19T08:12:22;14.10;;;8.40;;
34234;SDS011;20500;49.856;20.290;2022-08-19T08:15:37;12.90;;;8.60;;
34234;SDS011;20500;49.856;20.290;2022-08-19T08:18:45;13.20;;;8.70;;
34234;SDS011;20500;49.856;20.290;2022-08-19T08:21:55;14.80;;;9.10;;
34234;SDS011;20500;49.856;20.290;2022-08-19T08:25:05;16.50;;;10.30;;
34234;SDS011;20500;49.856;20.290;2022-08-19T08:28:13;12.60;;;8.90;;
34234;SDS011;20500;49.856;20.290;2022-08-19T08:31:20;23.70;;;10.10;;
34234;SDS011;20500;49.856;20.290;2022-08-19T08:34:26;14.30;;;9.10;;
34234;SDS011;20500;49.856;20.290;2022-08-19T08:37:32;13.50;;;9.60;;
34234;SDS011;20500;49.856;20.290;2022-08-19T08:40:42;15.40;;;9.10;;
34234;SDS011;20500;49.856;20.290;2022-08-19T08:43:52;14.80;;;8.60;;
34234;SDS011;20500;49.856;20.290;2022-08-19T08:47:01;14.90;;;9.40;;
34234;SDS011;20500;49.856;20.290;2022-08-19T08:50:14;15.00;;;8.70;;
34234;SDS011;20500;49.856;20.290;2022-08-19T08:53:23;13.30;;;9.10;;
34234;SDS011;20500;49.856;20.290;2022-08-19T08:56:36;13.70;;;9.40;;
34234;SDS011;20500;49.856;20.290;2022-08-19T08:59:43;13.50;;;8.90;;
34234;SDS011;20500;49.856;20.290;2022-08-19T09:02:54;14.10;;;9.20;;
34234;SDS011;20500;49.856;20.290;2022-08-19T09:06:03;14.40;;;8.70;;
34234;SDS011;20500;49.856;20.290;2022-08-19T09:09:17;18.90;;;9.80;;
34234;SDS011;20500;49.856;20.290;2022-08-19T09:12:34;15.00;;;9.70;;
34234;SDS011;20500;49.856;20.290;2022-08-19T09:15:50;13.30;;;9.50;;
34234;SDS011;20500;49.856;20.290;2022-08-19T09:19:04;14.10;;;9.70;;
34234;SDS011;20500;49.856;20.290;2022-08-19T09:22:13;18.60;;;10.20;;
34234;SDS011;20500;49.856;20.290;2022-08-19T09:25:28;16.80;;;9.70;;
34234;SDS011;20500;49.856;20.290;2022-08-19T09:28:35;14.60;;;9.50;;
34234;SDS011;20500;49.856;20.290;2022-08-19T09:31:45;14.20;;;9.60;;
34234;SDS011;20500;49.856;20.290;2022-08-19T09:34:52;14.90;;;9.30;;
34234;SDS011;20500;49.856;20.290;2022-08-19T09:38:01;15.30;;;9.20;;
34234;SDS011;20500;49.856;20.290;2022-08-19T09:41:07;15.10;;;9.20;;
34234;SDS011;20500;49.856;20.290;2022-08-19T09:44:17;15.00;;;9.10;;
34234;SDS011;20500;49.856;20.290;2022-08-19T09:47:23;13.30;;;9.30;;
34234;SDS011;20500;49.856;20.290;2022-08-19T09:50:29;14.70;;;9.50;;
34234;SDS011;20500;49.856;20.290;2022-08-19T09:53:38;17.20;;;11.60;;
34234;SDS011;20500;49.856;20.290;2022-08-19T09:56:44;13.00;;;9.70;;
34234;SDS011;20500;49.856;20.290;2022-08-19T09:59:50;14.90;;;8.80;;
34234;SDS011;20500;49.856;20.290;2022-08-19T10:02:56;13.10;;;8.50;;
34234;SDS011;20500;49.856;20.290;2022-08-19T10:06:03;14.30;;;8.90;;
34234;SDS011;20500;49.856;20.290;2022-08-19T10:09:19;16.50;;;9.00;;
34234;SDS011;20500;49.856;20.290;2022-08-19T10:12:36;13.50;;;9.00;;
34234;SDS011;20500;49.856;20.290;2022-08-19T10:15:42;15.70;;;9.00;;
34234;SDS011;20500;49.856;20.290;2022-08-19T10:18:52;14.10;;;9.50;;
34234;SDS011;20500;49.856;20.290;2022-08-19T10:22:01;18.60;;;9.30;;
34234;SDS011;20500;49.856;20.290;2022-08-19T10:25:13;13.80;;;9.10;;
34234;SDS011;20500;49.856;20.290;2022-08-19T10:28:20;13.50;;;9.00;;
34234;SDS011;20500;49.856;20.290;2022-08-19T10:31:27;13.50;;;9.90;;
34234;SDS011;20500;49.856;20.290;2022-08-19T10:34:54;14.80;;;9.90;;
34234;SDS011;20500;49.856;20.290;2022-08-19T10:38:00;15.00;;;10.30;;
34234;SDS011;20500;49.856;20.290;2022-08-19T10:41:10;13.10;;;9.70;;
34234;SDS011;20500;49.856;20.290;2022-08-19T10:44:17;13.90;;;9.80;;
34234;SDS011;20500;49.856;20.290;2022-08-19T10:47:24;16.60;;;9.50;;
34234;SDS011;20500;49.856;20.290;2022-08-19T10:50:33;14.90;;;9.90;;
34234;SDS011;20500;49.856;20.290;2022-08-19T10:53:58;14.50;;;9.80;;
34234;SDS011;20500;49.856;20.290;2022-08-19T10:57:08;16.50;;;9.50;;
34234;SDS011;20500;49.856;20.290;2022-08-19T11:00:15;17.20;;;9.60;;
34234;SDS011;20500;49.856;20.290;2022-08-19T11:03:21;16.50;;;9.50;;
34234;SDS011;20500;49.856;20.290;2022-08-19T11:06:28;13.60;;;8.50;;
34234;SDS011;20500;49.856;20.290;2022-08-19T11:09:38;13.20;;;8.10;;
34234;SDS011;20500;49.856;20.290;2022-08-19T11:12:45;13.20;;;8.10;;
34234;SDS011;20500;49.856;20.290;2022-08-19T11:15:57;13.50;;;8.00;;
34234;SDS011;20500;49.856;20.290;2022-08-19T11:19:10;13.70;;;8.90;;
34234;SDS011;20500;49.856;20.290;2022-08-19T11:22:16;14.10;;;8.80;;
34234;SDS011;20500;49.856;20.290;2022-08-19T11:25:22;15.00;;;9.10;;
34234;SDS011;20500;49.856;20.290;2022-08-19T11:28:28;14.40;;;9.40;;
34234;SDS011;20500;49.856;20.290;2022-08-19T11:31:34;16.80;;;9.00;;
34234;SDS011;20500;49.856;20.290;2022-08-19T11:34:41;16.60;;;9.20;;
34234;SDS011;20500;49.856;20.290;2022-08-19T11:37:47;13.60;;;9.10;;
34234;SDS011;20500;49.856;20.290;2022-08-19T11:40:57;17.10;;;8.90;;
34234;SDS011;20500;49.856;20.290;2022-08-19T11:44:06;12.60;;;7.50;;
34234;SDS011;20500;49.856;20.290;2022-08-19T11:47:11;12.40;;;7.10;;
34234;SDS011;20500;49.856;20.290;2022-08-19T11:50:17;13.50;;;8.10;;
34234;SDS011;20500;49.856;20.290;2022-08-19T11:53:23;13.90;;;7.60;;
34234;SDS011;20500;49.856;20.290;2022-08-19T11:56:29;11.40;;;7.30;;
34234;SDS011;20500;49.856;20.290;2022-08-19T11:59:35;15.40;;;7.60;;
34234;SDS011;20500;49.856;20.290;2022-08-19T12:02:41;11.70;;;7.10;;
34234;SDS011;20500;49.856;20.290;2022-08-19T12:05:47;14.00;;;7.80;;
34234;SDS011;20500;49.856;20.290;2022-08-19T12:08:53;17.90;;;7.60;;
34234;SDS011;20500;49.856;20.290;2022-08-19T12:11:59;12.60;;;7.90;;
34234;SDS011;20500;49.856;20.290;2022-08-19T12:15:06;13.40;;;7.40;;
34234;SDS011;20500;49.856;20.290;2022-08-19T12:18:14;13.80;;;6.80;;
34234;SDS011;20500;49.856;20.290;2022-08-19T12:21:21;12.20;;;6.70;;
34234;SDS011;20500;49.856;20.290;2022-08-19T12:24:31;14.30;;;7.50;;
34234;SDS011;20500;49.856;20.290;2022-08-19T12:27:38;13.20;;;7.00;;
34234;SDS011;20500;49.856;20.290;2022-08-19T12:30:51;13.70;;;6.90;;
34234;SDS011;20500;49.856;20.290;2022-08-19T12:33:57;13.00;;;6.50;;
34234;SDS011;20500;49.856;20.290;2022-08-19T12:37:04;11.30;;;6.70;;
34234;SDS011;20500;49.856;20.290;2022-08-19T12:40:11;16.20;;;6.90;;
34234;SDS011;20500;49.856;20.290;2022-08-19T12:43:18;12.00;;;6.30;;
34234;SDS011;20500;49.856;20.290;2022-08-19T12:46:24;11.30;;;6.70;;
34234;SDS011;20500;49.856;20.290;2022-08-19T12:49:31;14.50;;;6.80;;
34234;SDS011;20500;49.856;20.290;2022-08-19T12:52:57;13.70;;;6.70;;
34234;SDS011;20500;49.856;20.290;2022-08-19T12:56:03;12.80;;;6.60;;
34234;SDS011;20500;49.856;20.290;2022-08-19T12:59:14;11.90;;;6.30;;
34234;SDS011;20500;49.856;20.290;2022-08-19T13:02:22;12.50;;;6.30;;
34234;SDS011;20500;49.856;20.290;2022-08-19T13:05:28;11.60;;;6.10;;
34234;SDS011;20500;49.856;20.290;2022-08-19T13:08:37;10.80;;;6.90;;
34234;SDS011;20500;49.856;20.290;2022-08-19T13:11:44;11.50;;;7.00;;
34234;SDS011;20500;49.856;20.290;2022-08-19T13:14:50;11.10;;;7.00;;
34234;SDS011;20500;49.856;20.290;2022-08-19T13:17:56;12.40;;;6.90;;
34234;SDS011;20500;49.856;20.290;2022-08-19T13:21:03;13.20;;;7.90;;
34234;SDS011;20500;49.856;20.290;2022-08-19T13:24:10;11.60;;;6.90;;
34234;SDS011;20500;49.856;20.290;2022-08-19T13:27:15;13.90;;;7.00;;
34234;SDS011;20500;49.856;20.290;2022-08-19T13:30:21;13.00;;;7.30;;
34234;SDS011;20500;49.856;20.290;2022-08-19T13:33:45;13.00;;;7.00;;
34234;SDS011;20500;49.856;20.290;2022-08-19T13:36:51;11.60;;;7.00;;
34234;SDS011;20500;49.856;20.290;2022-08-19T13:39:58;13.70;;;7.30;;
34234;SDS011;20500;49.856;20.290;2022-08-19T13:43:04;11.80;;;7.40;;
34234;SDS011;20500;49.856;20.290;2022-08-19T13:46:25;12.10;;;7.40;;
34234;SDS011;20500;49.856;20.290;2022-08-19T13:49:33;12.70;;;7.40;;
34234;SDS011;20500;49.856;20.290;2022-08-19T13:52:39;12.60;;;7.10;;
34234;SDS011;20500;49.856;20.290;2022-08-19T13:55:46;12.30;;;7.50;;
34234;SDS011;20500;49.856;20.290;2022-08-19T13:58:53;12.90;;;7.10;;
34234;SDS011;20500;49.856;20.290;2022-08-19T14:02:01;11.90;;;6.80;;
34234;SDS011;20500;49.856;20.290;2022-08-19T14:05:09;11.50;;;6.90;;
34234;SDS011;20500;49.856;20.290;2022-08-19T14:08:16;13.60;;;7.40;;
34234;SDS011;20500;49.856;20.290;2022-08-19T14:11:22;12.40;;;7.50;;
34234;SDS011;20500;49.856;20.290;2022-08-19T14:14:28;11.70;;;7.30;;
34234;SDS011;20500;49.856;20.290;2022-08-19T14:17:36;11.40;;;6.50;;
34234;SDS011;20500;49.856;20.290;2022-08-19T14:20:43;12.10;;;6.80;;
34234;SDS011;20500;49.856;20.290;2022-08-19T14:23:49;11.60;;;7.10;;
34234;SDS011;20500;49.856;20.290;2022-08-19T14:26:54;13.70;;;7.40;;
34234;SDS011;20500;49.856;20.290;2022-08-19T14:30:01;11.00;;;6.80;;
34234;SDS011;20500;49.856;20.290;2022-08-19T14:33:07;13.60;;;6.70;;
34234;SDS011;20500;49.856;20.290;2022-08-19T14:36:13;16.00;;;11.40;;
34234;SDS011;20500;49.856;20.290;2022-08-19T14:39:19;12.80;;;6.90;;
34234;SDS011;20500;49.856;20.290;2022-08-19T14:42:24;13.00;;;6.80;;
34234;SDS011;20500;49.856;20.290;2022-08-19T14:45:31;17.20;;;7.10;;
34234;SDS011;20500;49.856;20.290;2022-08-19T14:48:39;13.20;;;6.90;;
34234;SDS011;20500;49.856;20.290;2022-08-19T14:51:45;10.80;;;7.00;;
34234;SDS011;20500;49.856;20.290;2022-08-19T14:54:50;13.50;;;7.00;;
34234;SDS011;20500;49.856;20.290;2022-08-19T14:57:57;11.70;;;7.10;;
34234;SDS011;20500;49.856;20.290;2022-08-19T15:01:07;14.20;;;7.00;;
34234;SDS011;20500;49.856;20.290;2022-08-19T15:04:14;12.20;;;7.30;;
34234;SDS011;20500;49.856;20.290;2022-08-19T15:07:20;11.10;;;6.70;;
34234;SDS011;20500;49.856;20.290;2022-08-19T15:10:30;12.30;;;7.20;;
34234;SDS011;20500;49.856;20.290;2022-08-19T15:13:36;19.80;;;11.70;;
34234;SDS011;20500;49.856;20.290;2022-08-19T15:16:42;25.40;;;16.90;;
34234;SDS011;20500;49.856;20.290;2022-08-19T15:19:48;20.20;;;13.80;;
34234;SDS011;20500;49.856;20.290;2022-08-19T15:22:54;21.90;;;13.00;;
34234;SDS011;20500;49.856;20.290;2022-08-19T15:26:01;19.10;;;12.50;;
34234;SDS011;20500;49.856;20.290;2022-08-19T15:29:07;20.10;;;13.30;;
34234;SDS011;20500;49.856;20.290;2022-08-19T15:32:15;16.90;;;11.00;;
34234;SDS011;20500;49.856;20.290;2022-08-19T15:35:22;15.80;;;9.30;;
34234;SDS011;20500;49.856;20.290;2022-08-19T15:38:28;12.90;;;8.50;;
34234;SDS011;20500;49.856;20.290;2022-08-19T15:41:41;13.80;;;7.50;;
34234;SDS011;20500;49.856;20.290;2022-08-19T15:44:47;12.40;;;7.80;;
34234;SDS011;20500;49.856;20.290;2022-08-19T15:47:55;13.70;;;7.50;;
34234;SDS011;20500;49.856;20.290;2022-08-19T15:51:01;13.90;;;7.50;;
34234;SDS011;20500;49.856;20.290;2022-08-19T15:54:08;13.40;;;7.40;;
34234;SDS011;20500;49.856;20.290;2022-08-19T15:57:16;14.00;;;7.70;;
34234;SDS011;20500;49.856;20.290;2022-08-19T16:00:39;17.30;;;7.70;;
34234;SDS011;20500;49.856;20.290;2022-08-19T16:07:26;13.00;;;7.30;;
34234;SDS011;20500;49.856;20.290;2022-08-19T16:10:31;13.00;;;7.20;;
34234;SDS011;20500;49.856;20.290;2022-08-19T16:13:38;12.90;;;7.50;;
34234;SDS011;20500;49.856;20.290;2022-08-19T16:16:45;12.90;;;7.70;;
34234;SDS011;20500;49.856;20.290;2022-08-19T16:19:51;12.20;;;7.50;;
34234;SDS011;20500;49.856;20.290;2022-08-19T16:22:57;12.40;;;7.50;;
34234;SDS011;20500;49.856;20.290;2022-08-19T16:26:05;12.30;;;7.60;;
34234;SDS011;20500;49.856;20.290;2022-08-19T16:29:11;13.30;;;8.10;;
34234;SDS011;20500;49.856;20.290;2022-08-19T16:32:36;13.20;;;8.10;;
34234;SDS011;20500;49.856;20.290;2022-08-19T16:35:45;14.00;;;7.60;;
34234;SDS011;20500;49.856;20.290;2022-08-19T16:39:06;13.50;;;7.30;;
34234;SDS011;20500;49.856;20.290;2022-08-19T16:42:12;15.00;;;9.50;;
34234;SDS011;20500;49.856;20.290;2022-08-19T16:45:18;18.50;;;14.10;;
34234;SDS011;20500;49.856;20.290;2022-08-19T16:48:27;19.80;;;16.10;;
34234;SDS011;20500;49.856;20.290;2022-08-19T16:51:35;20.20;;;15.40;;
34234;SDS011;20500;49.856;20.290;2022-08-19T16:54:41;17.50;;;12.40;;
34234;SDS011;20500;49.856;20.290;2022-08-19T16:57:47;14.50;;;9.40;;
34234;SDS011;20500;49.856;20.290;2022-08-19T17:00:53;16.70;;;9.10;;
34234;SDS011;20500;49.856;20.290;2022-08-19T17:04:05;14.90;;;8.50;;
34234;SDS011;20500;49.856;20.290;2022-08-19T17:07:11;14.40;;;9.20;;
34234;SDS011;20500;49.856;20.290;2022-08-19T17:10:17;16.90;;;10.40;;
34234;SDS011;20500;49.856;20.290;2022-08-19T17:13:23;17.80;;;11.80;;
34234;SDS011;20500;49.856;20.290;2022-08-19T17:16:32;21.10;;;14.60;;
34234;SDS011;20500;49.856;20.290;2022-08-19T17:19:39;22.50;;;17.40;;
34234;SDS011;20500;49.856;20.290;2022-08-19T17:22:46;15.50;;;11.20;;
34234;SDS011;20500;49.856;20.290;2022-08-19T17:25:52;22.60;;;13.80;;
34234;SDS011;20500;49.856;20.290;2022-08-19T17:28:58;21.40;;;14.70;;
34234;SDS011;20500;49.856;20.290;2022-08-19T17:32:05;17.80;;;13.90;;
34234;SDS011;20500;49.856;20.290;2022-08-19T17:35:12;18.50;;;12.90;;
34234;SDS011;20500;49.856;20.290;2022-08-19T17:38:25;19.20;;;12.80;;
34234;SDS011;20500;49.856;20.290;2022-08-19T17:41:31;17.00;;;12.00;;
34234;SDS011;20500;49.856;20.290;2022-08-19T17:44:37;20.50;;;11.90;;
34234;SDS011;20500;49.856;20.290;2022-08-19T17:47:46;17.60;;;11.70;;
34234;SDS011;20500;49.856;20.290;2022-08-19T17:50:52;17.40;;;11.60;;
34234;SDS011;20500;49.856;20.290;2022-08-19T17:54:00;17.10;;;12.30;;
34234;SDS011;20500;49.856;20.290;2022-08-19T17:57:08;16.50;;;11.00;;
34234;SDS011;20500;49.856;20.290;2022-08-19T18:00:14;15.40;;;10.40;;
34234;SDS011;20500;49.856;20.290;2022-08-19T18:03:21;15.00;;;9.70;;
34234;SDS011;20500;49.856;20.290;2022-08-19T18:06:26;15.60;;;10.40;;
34234;SDS011;20500;49.856;20.290;2022-08-19T18:09:34;16.90;;;10.60;;
34234;SDS011;20500;49.856;20.290;2022-08-19T18:12:44;16.90;;;10.10;;
34234;SDS011;20500;49.856;20.290;2022-08-19T18:15:50;15.30;;;9.90;;
34234;SDS011;20500;49.856;20.290;2022-08-19T18:18:56;15.60;;;10.10;;